createdAt,value
2023-01-18T00:01:23.498Z,17.93
2023-01-18T00:03:53.026Z,18.53
2023-01-18T00:06:22.005Z,21.77
2023-01-18T00:08:54.631Z,19.37
2023-01-18T00:11:23.374Z,19.43
2023-01-18T00:13:52.876Z,17.73
2023-01-18T00:16:22.864Z,18.00
2023-01-18T00:18:52.610Z,17.83
2023-01-18T00:21:21.410Z,17.50
2023-01-18T00:23:51.382Z,16.97
2023-01-18T00:26:20.329Z,17.07
2023-01-18T00:28:49.159Z,19.73
2023-01-18T00:31:19.007Z,18.67
2023-01-18T00:33:49.380Z,17.63
2023-01-18T00:36:18.681Z,17.87
2023-01-18T00:38:52.366Z,16.87
2023-01-18T00:41:21.392Z,16.27
2023-01-18T00:43:49.254Z,18.47
2023-01-18T00:46:19.306Z,17.60
2023-01-18T00:48:48.299Z,17.00
2023-01-18T00:51:18.562Z,16.47
2023-01-18T00:53:47.403Z,16.23
2023-01-18T00:56:19.103Z,16.50
2023-01-18T00:58:47.805Z,16.27
2023-01-18T01:01:16.595Z,16.47
2023-01-18T01:04:02.528Z,16.80
2023-01-18T01:06:46.728Z,15.57
2023-01-18T01:09:17.438Z,14.37
2023-01-18T01:12:01.559Z,15.10
2023-01-18T01:14:47.500Z,15.23
2023-01-18T01:17:33.686Z,19.53
2023-01-18T01:20:19.484Z,20.47
2023-01-18T01:23:05.316Z,17.80
2023-01-18T01:25:51.204Z,18.63
2023-01-18T01:28:21.128Z,18.13
2023-01-18T01:30:49.696Z,18.63
2023-01-18T01:33:18.381Z,18.50
2023-01-18T01:35:46.960Z,17.47
2023-01-18T01:38:15.464Z,17.50
2023-01-18T01:40:43.956Z,18.17
2023-01-18T01:43:14.170Z,17.87
2023-01-18T01:45:44.115Z,16.67
2023-01-18T01:48:12.797Z,18.23
2023-01-18T01:50:41.545Z,20.17
2023-01-18T01:53:10.834Z,18.10
2023-01-18T01:55:39.704Z,17.80
2023-01-18T01:58:10.534Z,18.43
2023-01-18T02:00:39.060Z,18.10
2023-01-18T02:03:11.279Z,18.03
2023-01-18T02:05:44.799Z,17.73
2023-01-18T02:08:22.658Z,17.03
2023-01-18T02:10:52.091Z,17.20
2023-01-18T02:13:21.275Z,16.90
2023-01-18T02:16:00.062Z,14.47
2023-01-18T02:18:32.707Z,13.30
2023-01-18T02:21:19.039Z,12.27
2023-01-18T02:24:29.380Z,12.00
2023-01-18T02:27:03.164Z,10.90
2023-01-18T02:29:59.248Z,10.30
2023-01-18T02:32:34.854Z,11.50
2023-01-18T02:35:09.153Z,12.93
2023-01-18T02:37:43.771Z,12.10
2023-01-18T02:40:17.181Z,13.10
2023-01-18T02:43:03.977Z,12.70
2023-01-18T02:45:52.857Z,11.43
2023-01-18T02:48:22.964Z,10.07
2023-01-18T02:50:51.917Z,10.03
2023-01-18T02:53:20.427Z,10.60
2023-01-18T02:55:53.158Z,10.77
2023-01-18T02:58:26.232Z,11.70
2023-01-18T03:01:02.842Z,12.40
2023-01-18T03:03:31.394Z,11.80
2023-01-18T03:06:01.724Z,11.10
2023-01-18T03:08:35.625Z,12.23
2023-01-18T03:11:07.316Z,12.60
2023-01-18T03:13:50.088Z,13.33
2023-01-18T03:16:23.950Z,14.30
2023-01-18T03:19:02.189Z,13.27
2023-01-18T03:21:37.853Z,21.83
2023-01-18T03:24:07.989Z,28.10
2023-01-18T03:26:41.369Z,19.67
2023-01-18T03:29:27.707Z,16.70
2023-01-18T03:32:20.097Z,15.27
2023-01-18T03:34:53.044Z,12.80
2023-01-18T03:37:25.258Z,13.47
2023-01-18T03:39:57.174Z,13.17
2023-01-18T03:42:29.285Z,11.97
2023-01-18T03:45:03.788Z,11.13
2023-01-18T03:47:33.971Z,11.00
2023-01-18T03:50:02.632Z,11.10
2023-01-18T03:52:37.728Z,11.07
2023-01-18T03:55:11.291Z,11.00
2023-01-18T03:57:44.156Z,10.77
2023-01-18T04:00:14.240Z,11.33
2023-01-18T04:02:45.523Z,11.17
2023-01-18T04:05:14.257Z,10.43
2023-01-18T04:07:42.887Z,10.07
2023-01-18T04:10:12.566Z,10.33
2023-01-18T04:12:41.088Z,9.70
2023-01-18T04:15:10.718Z,10.40
2023-01-18T04:17:39.712Z,10.40
2023-01-18T04:20:11.299Z,10.03
2023-01-18T04:22:39.757Z,11.27
2023-01-18T04:25:08.919Z,10.90
2023-01-18T04:27:37.428Z,10.70
2023-01-18T04:30:07.002Z,11.17
2023-01-18T04:32:35.623Z,9.87
2023-01-18T04:35:04.252Z,15.33
2023-01-18T04:37:34.453Z,15.60
2023-01-18T04:40:03.277Z,12.83
2023-01-18T04:42:31.788Z,10.40
2023-01-18T04:45:00.976Z,12.53
2023-01-18T04:47:30.150Z,11.10
2023-01-18T04:49:58.659Z,8.87
2023-01-18T04:52:27.789Z,11.77
2023-01-18T04:54:57.754Z,19.53
2023-01-18T04:57:26.273Z,17.90
2023-01-18T04:59:54.867Z,13.70
2023-01-18T05:02:23.443Z,9.87
2023-01-18T05:04:51.943Z,9.77
2023-01-18T05:07:20.465Z,8.83
2023-01-18T05:09:49.008Z,7.77
2023-01-18T05:12:18.977Z,7.70
2023-01-18T05:14:47.510Z,7.50
2023-01-18T05:17:16.248Z,9.10
2023-01-18T05:19:46.733Z,8.40
2023-01-18T05:22:15.403Z,8.93
2023-01-18T05:24:44.039Z,8.90
2023-01-18T05:27:13.381Z,9.57
2023-01-18T05:29:43.995Z,9.33
2023-01-18T05:32:12.765Z,9.67
2023-01-18T05:34:41.271Z,10.40
2023-01-18T05:37:09.792Z,9.37
2023-01-18T05:39:38.508Z,10.27
2023-01-18T05:42:07.126Z,10.40
2023-01-18T05:44:35.915Z,11.83
2023-01-18T05:47:05.991Z,17.27
2023-01-18T05:49:34.587Z,16.50
2023-01-18T05:52:03.101Z,13.20
2023-01-18T05:54:31.695Z,11.87
2023-01-18T05:57:00.296Z,11.60
2023-01-18T05:59:28.868Z,11.40
2023-01-18T06:01:57.489Z,11.97
2023-01-18T06:04:27.418Z,11.03
2023-01-18T06:06:56.073Z,10.13
2023-01-18T06:09:24.540Z,10.83
2023-01-18T06:11:53.057Z,11.20
2023-01-18T06:14:21.527Z,9.73
2023-01-18T06:16:50.088Z,17.00
2023-01-18T06:19:18.905Z,21.03
2023-01-18T06:21:48.812Z,14.97
2023-01-18T06:24:17.361Z,12.30
2023-01-18T06:26:45.837Z,11.67
2023-01-18T06:29:14.316Z,12.23
2023-01-18T06:31:42.943Z,17.73
2023-01-18T06:34:11.435Z,16.83
2023-01-18T06:36:40.661Z,14.87
2023-01-18T06:39:10.676Z,12.60
2023-01-18T06:41:39.237Z,13.90
2023-01-18T06:44:07.763Z,12.37
2023-01-18T06:46:36.312Z,10.83
2023-01-18T06:49:04.858Z,12.50
2023-01-18T06:51:33.428Z,11.90
2023-01-18T06:54:01.977Z,17.17
2023-01-18T06:56:32.022Z,14.40
2023-01-18T06:59:01.116Z,14.73
2023-01-18T07:01:29.960Z,15.87
2023-01-18T07:03:58.524Z,15.33
2023-01-18T07:06:27.376Z,15.07
2023-01-18T07:08:55.891Z,15.63
2023-01-18T07:11:24.579Z,21.00
2023-01-18T07:13:54.489Z,27.27
2023-01-18T07:16:22.981Z,20.63
2023-01-18T07:18:51.530Z,17.97
2023-01-18T07:21:22.945Z,22.60
2023-01-18T07:23:52.231Z,18.77
2023-01-18T07:26:20.803Z,20.33
2023-01-18T07:28:49.503Z,19.50
2023-01-18T07:31:20.253Z,19.77
2023-01-18T07:33:48.983Z,20.13
2023-01-18T07:36:17.740Z,17.90
2023-01-18T07:38:47.282Z,15.13
2023-01-18T07:41:16.997Z,20.90
2023-01-18T07:43:46.046Z,34.93
2023-01-18T07:46:17.016Z,13.57
2023-01-18T07:48:47.883Z,14.20
2023-01-18T07:51:16.819Z,14.07
2023-01-18T07:53:45.689Z,12.60
2023-01-18T07:56:16.121Z,11.00
2023-01-18T07:58:45.385Z,11.27
2023-01-18T08:01:15.609Z,12.23
2023-01-18T08:03:47.242Z,12.40
2023-01-18T08:06:18.041Z,12.13
2023-01-18T08:08:46.696Z,11.50
2023-01-18T08:11:15.273Z,11.87
2023-01-18T08:13:43.917Z,12.23
2023-01-18T08:16:13.116Z,11.83
2023-01-18T08:18:41.791Z,12.03
2023-01-18T08:21:12.512Z,11.73
2023-01-18T08:23:41.300Z,16.40
2023-01-18T08:26:10.770Z,20.63
2023-01-18T08:28:39.476Z,15.63
2023-01-18T08:31:10.933Z,14.30
2023-01-18T08:33:40.971Z,24.83
2023-01-18T08:36:14.988Z,17.57
2023-01-18T08:38:43.690Z,16.73
2023-01-18T08:41:12.268Z,14.63
2023-01-18T08:43:40.833Z,13.70
2023-01-18T08:46:09.493Z,12.30
2023-01-18T08:48:38.164Z,12.17
2023-01-18T08:51:07.081Z,12.83
2023-01-18T08:53:36.963Z,14.03
2023-01-18T08:56:06.933Z,13.40
2023-01-18T08:58:35.487Z,13.20
2023-01-18T09:01:06.712Z,13.43
2023-01-18T09:03:35.482Z,12.63
2023-01-18T09:06:04.909Z,12.50
2023-01-18T09:08:33.419Z,15.73
2023-01-18T09:11:04.788Z,15.97
2023-01-18T09:13:33.633Z,14.13
2023-01-18T09:16:02.599Z,16.33
2023-01-18T09:18:31.226Z,13.50
2023-01-18T09:21:00.027Z,13.97
2023-01-18T09:23:28.640Z,14.97
2023-01-18T09:26:06.123Z,14.47
2023-01-18T09:28:35.104Z,13.87
2023-01-18T09:31:04.481Z,15.10
2023-01-18T09:33:37.911Z,12.73
2023-01-18T09:36:09.945Z,14.87
2023-01-18T09:38:39.737Z,14.83
2023-01-18T09:41:22.954Z,17.20
2023-01-18T09:43:53.288Z,17.40
2023-01-18T09:46:23.221Z,15.63
2023-01-18T09:48:56.315Z,16.80
2023-01-18T09:51:29.241Z,18.10
2023-01-18T09:54:09.990Z,21.53
2023-01-18T09:56:45.065Z,19.67
2023-01-18T09:59:20.967Z,20.83
2023-01-18T10:01:50.477Z,19.70
2023-01-18T10:04:23.494Z,15.70
2023-01-18T10:06:56.385Z,18.00
2023-01-18T10:09:27.689Z,19.50
2023-01-18T10:12:00.690Z,25.97
2023-01-18T10:14:42.475Z,22.10
2023-01-18T10:17:13.957Z,17.73
2023-01-18T10:19:42.829Z,15.20
2023-01-18T10:22:19.711Z,17.93
2023-01-18T10:24:52.695Z,13.93
2023-01-18T10:27:49.534Z,16.97
2023-01-18T10:30:29.456Z,15.63
2023-01-18T10:33:00.040Z,14.97
2023-01-18T10:35:33.333Z,14.80
2023-01-18T10:38:04.010Z,15.47
2023-01-18T10:40:32.536Z,16.73
2023-01-18T10:43:04.415Z,18.37
2023-01-18T10:45:34.986Z,18.57
2023-01-18T10:48:21.422Z,19.57
2023-01-18T10:50:53.360Z,16.10
2023-01-18T10:53:28.333Z,14.77
2023-01-18T10:56:00.487Z,19.33
2023-01-18T10:58:33.759Z,14.80
2023-01-18T11:01:03.801Z,15.60
2023-01-18T11:03:38.095Z,27.73
2023-01-18T11:06:08.361Z,20.07
2023-01-18T11:08:37.277Z,15.87
2023-01-18T11:11:07.279Z,15.63
2023-01-18T11:13:43.452Z,14.57
2023-01-18T11:16:16.154Z,16.87
2023-01-18T11:18:59.451Z,14.20
2023-01-18T11:21:31.607Z,13.67
2023-01-18T11:24:00.261Z,15.43
2023-01-18T11:26:29.627Z,16.33
2023-01-18T11:29:01.707Z,13.97
2023-01-18T11:31:32.076Z,14.00
2023-01-18T11:34:01.616Z,12.00
2023-01-18T11:36:38.358Z,12.40
2023-01-18T11:39:24.771Z,12.43
2023-01-18T11:41:54.261Z,13.80
2023-01-18T11:44:25.761Z,11.93
2023-01-18T11:46:55.706Z,12.23
2023-01-18T11:49:32.634Z,11.43
2023-01-18T11:52:03.068Z,11.10
2023-01-18T11:54:36.595Z,12.73
2023-01-18T11:57:06.915Z,11.63
2023-01-18T11:59:38.357Z,12.90
2023-01-18T12:02:35.233Z,10.97
2023-01-18T12:05:22.503Z,13.37
2023-01-18T12:08:10.862Z,12.27
2023-01-18T12:10:45.686Z,14.07
2023-01-18T12:13:30.958Z,14.60
2023-01-18T12:16:09.574Z,15.17
2023-01-18T12:19:03.737Z,14.23
2023-01-18T12:21:38.539Z,12.87
2023-01-18T12:24:20.483Z,13.63
2023-01-18T12:26:52.416Z,14.77
2023-01-18T12:29:30.647Z,14.53
2023-01-18T12:32:11.107Z,14.33
2023-01-18T12:34:42.753Z,17.40
2023-01-18T12:37:24.067Z,16.17
2023-01-18T12:39:57.028Z,18.93
2023-01-18T12:42:34.690Z,18.30
2023-01-18T12:45:19.503Z,16.67
2023-01-18T12:47:59.052Z,15.30
2023-01-18T12:50:30.238Z,15.97
2023-01-18T12:53:00.932Z,16.23
2023-01-18T12:55:31.856Z,18.83
2023-01-18T12:58:01.565Z,17.70
2023-01-18T13:00:35.498Z,17.70
2023-01-18T13:03:12.804Z,16.37
2023-01-18T13:05:51.011Z,15.17
2023-01-18T13:08:26.313Z,14.87
2023-01-18T13:10:56.834Z,14.33
2023-01-18T13:13:28.370Z,16.30
2023-01-18T13:16:03.379Z,15.43
2023-01-18T13:18:38.051Z,13.47
2023-01-18T13:21:18.227Z,12.33
2023-01-18T13:23:55.568Z,14.43
2023-01-18T13:26:27.312Z,13.73
2023-01-18T13:29:17.932Z,15.70
2023-01-18T13:31:47.603Z,15.03
2023-01-18T13:34:30.289Z,14.03
2023-01-18T13:37:13.331Z,14.60
2023-01-18T13:39:46.315Z,18.00
2023-01-18T13:42:27.044Z,19.83
2023-01-18T13:45:15.427Z,24.10
2023-01-18T13:47:58.643Z,14.57
2023-01-18T13:50:48.520Z,13.87
2023-01-18T13:53:25.147Z,12.83
2023-01-18T13:56:34.370Z,14.93
2023-01-18T13:59:05.795Z,11.70
2023-01-18T14:01:36.574Z,13.00
2023-01-18T14:04:24.978Z,12.83
2023-01-18T14:06:56.132Z,19.77
2023-01-18T14:09:46.228Z,19.27
2023-01-18T14:12:15.037Z,17.17
2023-01-18T14:14:54.548Z,15.47
2023-01-18T14:17:25.280Z,16.47
2023-01-18T14:20:08.713Z,16.60
2023-01-18T14:22:57.416Z,16.57
2023-01-18T14:25:52.052Z,15.10
2023-01-18T14:28:24.822Z,14.90
2023-01-18T14:30:57.011Z,14.97
2023-01-18T14:33:28.196Z,14.83
2023-01-18T14:35:58.744Z,13.87
2023-01-18T14:38:29.204Z,34.10
2023-01-18T14:40:59.459Z,20.77
2023-01-18T14:43:32.267Z,18.77
2023-01-18T14:46:02.690Z,19.07
2023-01-18T14:48:34.584Z,18.03
2023-01-18T14:51:04.979Z,19.13
2023-01-18T14:53:39.658Z,17.37
2023-01-18T14:56:11.044Z,20.33
2023-01-18T14:58:42.591Z,20.03
2023-01-18T15:01:27.212Z,18.13
2023-01-18T15:03:56.194Z,22.53
2023-01-18T15:06:34.425Z,18.13
2023-01-18T15:09:07.204Z,16.93
2023-01-18T15:11:36.836Z,18.50
2023-01-18T15:14:09.103Z,18.63
2023-01-18T15:16:37.957Z,16.37
2023-01-18T15:19:06.973Z,15.93
2023-01-18T15:21:36.867Z,16.33
2023-01-18T15:24:09.062Z,17.50
2023-01-18T15:26:41.863Z,21.93
2023-01-18T15:29:16.133Z,17.67
2023-01-18T15:31:50.855Z,21.57
2023-01-18T15:34:24.841Z,17.10
2023-01-18T15:36:53.503Z,15.30
2023-01-18T15:39:23.529Z,16.70
2023-01-18T15:41:52.367Z,15.40
2023-01-18T15:44:35.409Z,14.10
2023-01-18T15:47:04.263Z,12.50
2023-01-18T15:49:32.833Z,11.90
2023-01-18T15:52:02.991Z,13.27
2023-01-18T15:54:32.883Z,11.50
2023-01-18T15:57:13.970Z,15.97
2023-01-18T15:59:43.320Z,12.40
2023-01-18T16:02:20.640Z,12.97
2023-01-18T16:04:49.285Z,12.03
2023-01-18T16:07:38.608Z,14.43
2023-01-18T16:10:30.488Z,14.03
2023-01-18T16:13:23.865Z,14.77
2023-01-18T16:16:18.860Z,14.53
2023-01-18T16:18:50.022Z,13.63
2023-01-18T16:21:32.805Z,14.20
2023-01-18T16:24:01.399Z,15.50
2023-01-18T16:26:31.892Z,14.10
2023-01-18T16:29:07.909Z,14.80
2023-01-18T16:31:39.066Z,13.27
2023-01-18T16:34:19.386Z,18.37
2023-01-18T16:36:48.168Z,16.00
2023-01-18T16:39:16.680Z,16.53
2023-01-18T16:41:52.153Z,17.10
2023-01-18T16:44:21.634Z,14.17
2023-01-18T16:46:50.568Z,12.47
2023-01-18T16:49:19.988Z,11.90
2023-01-18T16:51:50.036Z,14.00
2023-01-18T16:54:19.255Z,11.93
2023-01-18T16:56:49.718Z,11.88
2023-01-18T16:59:21.717Z,11.27
2023-01-18T17:01:51.514Z,16.63
2023-01-18T17:04:20.164Z,18.50
2023-01-18T17:06:48.728Z,15.43
2023-01-18T17:09:22.931Z,14.37
2023-01-18T17:11:53.238Z,13.80
2023-01-18T17:14:22.701Z,16.30
2023-01-18T17:16:51.309Z,16.73
2023-01-18T17:19:21.235Z,14.03
2023-01-18T17:21:50.862Z,12.70
2023-01-18T17:24:21.156Z,14.10
2023-01-18T17:26:50.078Z,15.33
2023-01-18T17:29:21.963Z,15.23
2023-01-18T17:31:53.001Z,14.70
2023-01-18T17:34:27.739Z,12.57
2023-01-18T17:36:58.239Z,15.47
2023-01-18T17:39:42.464Z,18.73
2023-01-18T17:42:19.159Z,15.10
2023-01-18T17:45:03.004Z,13.40
2023-01-18T17:47:32.124Z,13.23
2023-01-18T17:50:01.088Z,12.40
2023-01-18T17:52:29.703Z,12.83
2023-01-18T17:54:58.416Z,12.77
2023-01-18T17:57:28.764Z,13.60
2023-01-18T17:59:58.697Z,12.97
2023-01-18T18:02:27.922Z,12.70
2023-01-18T18:04:57.007Z,12.37
2023-01-18T18:07:25.574Z,12.27
2023-01-18T18:09:58.248Z,13.57
2023-01-18T18:12:26.796Z,13.83
2023-01-18T18:14:56.025Z,12.70
2023-01-18T18:17:27.309Z,15.07
2023-01-18T18:19:55.938Z,16.43
2023-01-18T18:22:24.839Z,15.53
2023-01-18T18:24:53.703Z,15.73
2023-01-18T18:27:24.839Z,14.53
2023-01-18T18:29:55.208Z,15.17
2023-01-18T18:32:25.190Z,23.40
2023-01-18T18:34:53.773Z,34.77
2023-01-18T18:37:23.538Z,28.80
2023-01-18T18:39:52.070Z,18.50
2023-01-18T18:42:20.707Z,15.17
2023-01-18T18:44:49.205Z,11.60
2023-01-18T18:47:17.727Z,11.83
2023-01-18T18:49:47.623Z,10.67
2023-01-18T18:52:16.168Z,9.60
2023-01-18T18:54:44.796Z,11.23
2023-01-18T18:57:13.513Z,9.70
2023-01-18T18:59:42.049Z,14.10
2023-01-18T19:02:14.068Z,18.90
2023-01-18T19:04:43.767Z,16.23
2023-01-18T19:07:13.740Z,13.60
2023-01-18T19:09:42.319Z,12.13
2023-01-18T19:12:10.831Z,10.90
2023-01-18T19:14:39.392Z,11.83
2023-01-18T19:17:09.086Z,12.43
2023-01-18T19:19:37.617Z,12.73
2023-01-18T19:22:06.186Z,13.00
2023-01-18T19:24:36.897Z,12.90
2023-01-18T19:27:05.959Z,13.73
2023-01-18T19:29:34.473Z,14.13
2023-01-18T19:32:03.007Z,14.07
2023-01-18T19:34:31.609Z,16.17
2023-01-18T19:37:00.563Z,18.27
2023-01-18T19:39:29.183Z,17.53
2023-01-18T19:41:59.154Z,17.27
2023-01-18T19:44:27.856Z,19.23
2023-01-18T19:46:57.118Z,23.13
2023-01-18T19:49:26.478Z,21.40
2023-01-18T19:51:55.784Z,17.33
2023-01-18T19:54:24.696Z,16.47
2023-01-18T19:56:53.177Z,17.80
2023-01-18T19:59:23.170Z,17.03
2023-01-18T20:01:52.395Z,16.73
2023-01-18T20:04:21.239Z,18.07
2023-01-18T20:06:50.219Z,21.73
2023-01-18T20:09:21.197Z,31.13
2023-01-18T20:11:51.917Z,28.80
2023-01-18T20:14:20.568Z,30.33
2023-01-18T20:16:50.973Z,25.50
2023-01-18T20:19:19.620Z,19.03
2023-01-18T20:21:48.423Z,16.43
2023-01-18T20:24:17.950Z,14.50
2023-01-18T20:26:46.684Z,14.33
2023-01-18T20:29:15.277Z,12.63
2023-01-18T20:31:49.651Z,13.37
2023-01-18T20:34:20.102Z,12.40
2023-01-18T20:36:50.207Z,12.80
2023-01-18T20:39:19.087Z,13.37
2023-01-18T20:41:49.925Z,12.10
2023-01-18T20:44:18.446Z,14.33
2023-01-18T20:46:47.576Z,13.63
2023-01-18T20:49:20.577Z,16.87
2023-01-18T20:51:52.365Z,21.13
2023-01-18T20:54:21.112Z,17.90
2023-01-18T20:56:49.629Z,16.27
2023-01-18T20:59:18.548Z,18.53
2023-01-18T21:01:47.922Z,15.35
2023-01-18T21:04:16.555Z,16.07
2023-01-18T21:06:46.608Z,12.97
2023-01-18T21:09:16.633Z,13.50
2023-01-18T21:11:45.341Z,11.57
2023-01-18T21:14:13.871Z,14.00
2023-01-18T21:16:42.547Z,17.30
2023-01-18T21:19:11.310Z,14.70
2023-01-18T21:21:40.219Z,14.70
2023-01-18T21:24:09.127Z,15.33
2023-01-18T21:26:39.086Z,17.03
2023-01-18T21:29:07.704Z,17.83
2023-01-18T21:31:36.318Z,17.50
2023-01-18T21:34:04.838Z,18.50
2023-01-18T21:36:33.400Z,20.63
2023-01-18T21:39:01.909Z,20.33
2023-01-18T21:41:47.633Z,19.13
2023-01-18T21:44:34.931Z,17.50
2023-01-18T21:47:03.602Z,14.23
2023-01-18T21:52:58.386Z,14.80
2023-01-18T21:55:26.877Z,14.53
2023-01-18T21:58:13.012Z,15.70
2023-01-18T22:00:43.516Z,14.60
2023-01-18T22:03:13.158Z,15.13
2023-01-18T22:05:41.680Z,16.50
2023-01-18T22:08:10.663Z,19.43
2023-01-18T22:10:39.180Z,33.87
2023-01-18T22:13:07.732Z,22.73
2023-01-18T22:15:36.250Z,18.70
2023-01-18T22:18:06.647Z,13.20
2023-01-18T22:20:35.322Z,15.70
2023-01-18T22:23:03.831Z,12.33
2023-01-18T22:25:32.336Z,9.10
2023-01-18T22:28:01.172Z,9.30
2023-01-18T22:30:29.952Z,9.93
2023-01-18T22:32:58.409Z,11.70
2023-01-18T22:35:28.298Z,9.80
2023-01-18T22:37:56.858Z,10.37
2023-01-18T22:40:25.449Z,10.30
2023-01-18T22:42:53.983Z,10.67
2023-01-18T22:45:22.513Z,13.53
2023-01-18T22:47:50.991Z,12.43
2023-01-18T22:50:19.808Z,12.33
2023-01-18T22:52:50.010Z,12.50
2023-01-18T22:55:18.534Z,11.77
2023-01-18T22:57:47.050Z,11.20
2023-01-18T23:00:16.533Z,11.27
2023-01-18T23:02:45.052Z,11.70
2023-01-18T23:05:13.597Z,10.50
2023-01-18T23:07:42.203Z,10.97
2023-01-18T23:10:12.380Z,11.93
2023-01-18T23:12:40.902Z,13.00
2023-01-18T23:15:28.723Z,14.17
2023-01-18T23:17:57.488Z,13.00
2023-01-18T23:20:26.711Z,10.80
2023-01-18T23:22:55.237Z,11.17
2023-01-18T23:25:25.165Z,11.47
2023-01-18T23:27:53.764Z,8.60
2023-01-18T23:30:22.444Z,9.87
2023-01-18T23:32:50.941Z,9.40
2023-01-18T23:35:19.570Z,9.13
2023-01-18T23:37:48.071Z,8.17
2023-01-18T23:40:34.269Z,7.97
2023-01-18T23:43:21.679Z,8.87
2023-01-18T23:46:07.420Z,8.77
2023-01-18T23:48:53.557Z,8.63
2023-01-18T23:51:39.265Z,8.47
2023-01-18T23:54:19.624Z,7.70
2023-01-18T23:56:48.614Z,8.20
2023-01-18T23:59:18.504Z,7.60
